createdAt,value
2022-09-28T00:01:12.432Z,11.88
2022-09-28T00:03:40.556Z,11.84
2022-09-28T00:06:10.391Z,11.80
2022-09-28T00:08:38.870Z,11.74
2022-09-28T00:11:08.209Z,11.69
2022-09-28T00:13:36.540Z,11.62
2022-09-28T00:16:04.790Z,11.54
2022-09-28T00:18:33.516Z,11.51
2022-09-28T00:21:06.235Z,11.46
2022-09-28T00:23:35.330Z,11.41
2022-09-28T00:26:04.918Z,11.40
2022-09-28T00:28:33.220Z,11.37
2022-09-28T00:31:01.741Z,11.34
2022-09-28T00:33:30.020Z,11.32
2022-09-28T00:35:58.831Z,11.33
2022-09-28T00:38:28.243Z,11.31
2022-09-28T00:40:56.701Z,11.30
2022-09-28T00:43:25.343Z,11.31
2022-09-28T00:46:04.565Z,11.30
2022-09-28T00:48:34.559Z,11.21
2022-09-28T00:51:06.419Z,11.15
2022-09-28T00:53:36.991Z,11.10
2022-09-28T00:56:07.660Z,11.09
2022-09-28T00:58:39.757Z,11.08
2022-09-28T01:01:07.944Z,11.09
2022-09-28T01:03:37.629Z,11.11
2022-09-28T01:06:06.722Z,11.10
2022-09-28T01:08:36.370Z,11.10
2022-09-28T01:11:04.821Z,11.09
2022-09-28T01:13:33.046Z,11.12
2022-09-28T01:16:08.304Z,11.14
2022-09-28T01:18:38.415Z,11.16
2022-09-28T01:21:17.213Z,11.19
2022-09-28T01:24:03.776Z,11.20
2022-09-28T01:26:42.040Z,11.23
2022-09-28T01:29:26.942Z,11.24
2022-09-28T01:32:18.374Z,11.24
2022-09-28T01:35:06.820Z,11.23
2022-09-28T01:37:39.788Z,11.20
2022-09-28T01:40:09.677Z,11.18
2022-09-28T01:42:39.872Z,11.16
2022-09-28T01:45:14.695Z,11.13
2022-09-28T01:47:44.246Z,11.14
2022-09-28T01:50:14.552Z,11.15
2022-09-28T01:52:49.028Z,11.22
2022-09-28T01:55:26.170Z,11.26
2022-09-28T01:57:54.406Z,11.28
2022-09-28T02:00:24.051Z,11.29
2022-09-28T02:02:56.382Z,11.30
2022-09-28T02:05:43.887Z,11.31
2022-09-28T02:08:22.195Z,11.31
2022-09-28T02:10:57.434Z,11.29
2022-09-28T02:13:31.572Z,11.30
2022-09-28T02:16:12.275Z,11.29
2022-09-28T02:18:40.533Z,11.28
2022-09-28T02:21:11.416Z,11.28
2022-09-28T02:23:41.739Z,11.29
2022-09-28T02:26:12.211Z,11.30
2022-09-28T02:28:40.446Z,11.31
2022-09-28T02:31:08.704Z,11.33
2022-09-28T02:33:38.866Z,11.33
2022-09-28T02:36:07.544Z,11.34
2022-09-28T02:38:39.225Z,11.35
2022-09-28T02:41:07.297Z,11.36
2022-09-28T02:44:01.524Z,11.39
2022-09-28T02:46:36.081Z,11.42
2022-09-28T02:49:21.914Z,11.44
2022-09-28T02:51:54.471Z,11.45
2022-09-28T02:54:45.576Z,11.47
2022-09-28T02:57:14.090Z,11.48
2022-09-28T02:59:42.594Z,11.49
2022-09-28T03:02:16.959Z,11.49
2022-09-28T03:04:49.396Z,11.51
2022-09-28T03:07:22.328Z,11.50
2022-09-28T03:09:57.684Z,11.51
2022-09-28T03:12:29.456Z,11.53
2022-09-28T03:15:11.278Z,11.50
2022-09-28T03:17:39.906Z,11.46
2022-09-28T03:20:10.328Z,11.46
2022-09-28T03:22:38.929Z,11.44
2022-09-28T03:25:07.982Z,11.43
2022-09-28T03:27:36.737Z,11.43
2022-09-28T03:30:05.419Z,11.45
2022-09-28T03:32:33.887Z,11.44
2022-09-28T03:35:02.221Z,11.42
2022-09-28T03:37:30.522Z,11.42
2022-09-28T03:39:59.011Z,11.43
2022-09-28T03:42:27.204Z,11.42
2022-09-28T03:44:55.546Z,11.41
2022-09-28T03:47:24.039Z,11.41
2022-09-28T03:49:52.222Z,11.41
2022-09-28T03:52:20.315Z,11.43
2022-09-28T03:54:49.337Z,11.43
2022-09-28T03:57:17.774Z,11.44
2022-09-28T03:59:46.002Z,11.42
2022-09-28T04:02:14.269Z,11.43
2022-09-28T04:04:43.707Z,11.43
2022-09-28T04:07:11.863Z,11.43
2022-09-28T04:09:40.314Z,11.44
2022-09-28T04:12:08.499Z,11.46
2022-09-28T04:14:37.023Z,11.49
2022-09-28T04:17:07.362Z,11.51
2022-09-28T04:19:35.870Z,11.54
2022-09-28T04:22:16.381Z,11.56
2022-09-28T04:24:44.814Z,11.60
2022-09-28T04:27:31.336Z,11.61
2022-09-28T04:30:01.495Z,11.63
2022-09-28T04:32:30.714Z,11.64
2022-09-28T04:34:59.079Z,11.64
2022-09-28T04:37:27.209Z,11.63
2022-09-28T04:39:55.374Z,11.64
2022-09-28T04:42:23.512Z,11.60
2022-09-28T04:44:52.296Z,11.60
2022-09-28T04:47:20.414Z,11.59
2022-09-28T04:50:20.863Z,11.58
2022-09-28T04:53:07.785Z,11.53
2022-09-28T04:55:35.916Z,11.51
2022-09-28T04:58:04.540Z,11.47
2022-09-28T05:00:35.462Z,11.46
2022-09-28T05:03:36.040Z,11.45
2022-09-28T05:06:23.152Z,11.43
2022-09-28T05:08:58.620Z,11.43
2022-09-28T05:11:26.785Z,11.43
2022-09-28T05:13:55.214Z,11.45
2022-09-28T05:16:25.312Z,11.44
2022-09-28T05:19:12.678Z,11.46
2022-09-28T05:21:46.165Z,11.46
2022-09-28T05:24:14.481Z,11.48
2022-09-28T05:26:45.614Z,11.49
2022-09-28T05:29:13.795Z,11.52
2022-09-28T05:32:01.851Z,11.53
2022-09-28T05:34:38.773Z,11.57
2022-09-28T05:37:07.039Z,11.59
2022-09-28T05:39:35.228Z,11.61
2022-09-28T05:42:03.435Z,11.64
2022-09-28T05:44:31.712Z,11.67
2022-09-28T05:46:59.957Z,11.71
2022-09-28T05:49:29.405Z,11.75
2022-09-28T05:51:57.722Z,11.79
2022-09-28T05:54:26.044Z,11.83
2022-09-28T05:56:54.325Z,11.86
2022-09-28T05:59:22.494Z,11.88
2022-09-28T06:01:51.041Z,11.94
2022-09-28T06:04:19.294Z,11.99
2022-09-28T06:06:49.167Z,12.04
2022-09-28T06:09:17.669Z,12.08
2022-09-28T06:12:08.784Z,12.18
2022-09-28T06:14:42.220Z,12.26
2022-09-28T06:17:10.835Z,12.35
2022-09-28T06:19:39.500Z,12.43
2022-09-28T06:22:07.642Z,12.51
2022-09-28T06:24:43.991Z,12.62
2022-09-28T06:27:12.134Z,12.72
2022-09-28T06:29:40.430Z,12.79
2022-09-28T06:32:08.642Z,12.83
2022-09-28T06:34:38.738Z,12.89
2022-09-28T06:37:07.045Z,12.96
2022-09-28T06:39:35.742Z,13.01
2022-09-28T06:42:04.505Z,13.03
2022-09-28T06:44:52.799Z,13.06
2022-09-28T06:47:33.936Z,13.08
2022-09-28T06:50:32.993Z,13.12
2022-09-28T06:53:33.177Z,13.18
2022-09-28T06:56:16.896Z,13.26
2022-09-28T06:58:45.853Z,13.37
2022-09-28T07:01:14.366Z,13.45
2022-09-28T07:03:50.522Z,13.48
2022-09-28T07:06:46.593Z,13.55
2022-09-28T07:09:35.049Z,13.62
2022-09-28T07:12:13.626Z,13.67
2022-09-28T07:15:02.388Z,13.78
2022-09-28T07:17:32.044Z,13.87
2022-09-28T07:20:14.527Z,13.98
2022-09-28T07:22:48.504Z,14.15
2022-09-28T07:25:21.478Z,14.29
2022-09-28T07:28:09.611Z,14.39
2022-09-28T07:30:46.910Z,14.50
2022-09-28T07:33:38.407Z,14.57
2022-09-28T07:36:21.029Z,14.57
2022-09-28T07:38:49.442Z,14.56
2022-09-28T07:41:22.622Z,14.59
2022-09-28T07:43:52.443Z,14.58
2022-09-28T07:46:22.350Z,14.57
2022-09-28T07:49:00.039Z,14.88
2022-09-28T07:51:37.024Z,15.24
2022-09-28T07:54:32.933Z,15.56
2022-09-28T07:57:24.321Z,16.04
2022-09-28T08:00:10.350Z,16.44
2022-09-28T08:02:47.965Z,16.73
2022-09-28T08:05:23.165Z,16.88
2022-09-28T08:07:53.103Z,16.87
2022-09-28T08:10:21.502Z,16.85
2022-09-28T08:13:12.824Z,16.86
2022-09-28T08:16:00.607Z,16.90
2022-09-28T08:18:35.793Z,16.92
2022-09-28T08:21:23.723Z,16.94
2022-09-28T08:23:53.076Z,16.97
2022-09-28T08:26:21.929Z,16.95
2022-09-28T08:28:51.364Z,16.96
2022-09-28T08:32:01.678Z,17.08
2022-09-28T08:34:32.678Z,17.20
2022-09-28T08:37:16.005Z,17.31
2022-09-28T08:40:02.619Z,17.40
2022-09-28T08:42:59.666Z,17.54
2022-09-28T08:46:06.805Z,17.69
2022-09-28T08:49:23.590Z,17.78
2022-09-28T08:52:17.324Z,17.83
2022-09-28T08:55:16.737Z,17.85
2022-09-28T08:57:56.062Z,17.82
2022-09-28T09:00:38.582Z,17.82
2022-09-28T09:03:11.772Z,17.81
2022-09-28T09:05:47.741Z,17.84
2022-09-28T09:08:36.326Z,17.82
2022-09-28T09:11:21.645Z,17.76
2022-09-28T09:14:04.071Z,17.77
2022-09-28T09:16:32.750Z,17.83
2022-09-28T09:19:40.212Z,17.92
2022-09-28T09:22:46.025Z,18.08
2022-09-28T09:25:20.514Z,18.25
2022-09-28T09:27:56.837Z,18.36
2022-09-28T09:30:30.134Z,18.24
2022-09-28T09:33:13.985Z,18.13
2022-09-28T09:36:14.368Z,18.02
2022-09-28T09:39:08.301Z,18.02
2022-09-28T09:41:54.984Z,18.12
2022-09-28T09:45:00.388Z,18.08
2022-09-28T09:48:03.547Z,17.86
2022-09-28T09:50:35.948Z,17.68
2022-09-28T09:53:07.343Z,17.65
2022-09-28T09:55:35.762Z,17.66
2022-09-28T09:58:28.697Z,17.90
2022-09-28T10:01:21.707Z,18.01
2022-09-28T10:04:15.883Z,18.39
2022-09-28T10:06:44.485Z,18.72
2022-09-28T10:09:26.866Z,18.87
2022-09-28T10:11:57.915Z,18.83
2022-09-28T10:14:26.171Z,18.80
2022-09-28T10:17:02.751Z,18.78
2022-09-28T10:19:51.267Z,18.72
2022-09-28T10:22:28.981Z,18.71
2022-09-28T10:25:00.155Z,18.69
2022-09-28T10:27:30.836Z,18.66
2022-09-28T10:29:59.111Z,18.57
2022-09-28T10:32:36.845Z,18.52
2022-09-28T10:35:18.707Z,18.57
2022-09-28T10:37:55.369Z,18.67
2022-09-28T10:40:45.280Z,18.81
2022-09-28T10:43:18.872Z,18.88
2022-09-28T10:45:47.677Z,18.92
2022-09-28T10:48:22.669Z,18.97
2022-09-28T10:51:05.141Z,19.02
2022-09-28T10:53:37.170Z,19.04
2022-09-28T10:56:27.074Z,19.09
2022-09-28T10:59:00.336Z,19.01
2022-09-28T11:01:41.616Z,18.85
2022-09-28T11:04:19.670Z,18.69
2022-09-28T11:06:48.185Z,18.56
2022-09-28T11:09:29.747Z,18.49
2022-09-28T11:12:01.551Z,18.42
2022-09-28T11:14:42.075Z,18.33
2022-09-28T11:17:16.270Z,18.38
2022-09-28T11:19:44.778Z,18.61
2022-09-28T11:22:26.341Z,19.04
2022-09-28T11:25:33.484Z,19.72
2022-09-28T11:28:04.743Z,20.26
2022-09-28T11:30:45.200Z,20.25
2022-09-28T11:33:36.286Z,20.19
2022-09-28T11:36:35.370Z,19.99
2022-09-28T11:39:20.182Z,19.87
2022-09-28T11:42:16.625Z,19.73
2022-09-28T11:44:47.197Z,19.46
2022-09-28T11:47:41.610Z,19.31
2022-09-28T11:50:31.343Z,19.35
2022-09-28T11:53:18.175Z,19.53
2022-09-28T11:55:46.721Z,19.73
2022-09-28T11:58:18.170Z,20.02
2022-09-28T12:00:51.045Z,20.06
2022-09-28T12:03:26.284Z,19.92
2022-09-28T12:05:59.689Z,19.86
2022-09-28T12:08:30.414Z,19.95
2022-09-28T12:11:09.919Z,19.96
2022-09-28T12:13:59.122Z,19.78
2022-09-28T12:17:04.674Z,19.69
2022-09-28T12:19:21.105Z,19.50
2022-09-28T12:21:55.363Z,19.18
2022-09-28T12:24:26.866Z,18.94
2022-09-28T12:26:54.922Z,18.69
2022-09-28T12:29:41.059Z,18.44
2022-09-28T12:32:17.584Z,18.21
2022-09-28T12:34:45.755Z,18.02
2022-09-28T12:37:23.067Z,17.93
2022-09-28T12:40:23.761Z,17.77
2022-09-28T12:43:10.490Z,17.51
2022-09-28T12:46:13.751Z,17.31
2022-09-28T12:48:52.940Z,17.10
2022-09-28T12:51:35.193Z,16.95
2022-09-28T12:54:06.612Z,16.84
2022-09-28T12:56:53.876Z,16.78
2022-09-28T12:59:22.274Z,16.78
2022-09-28T13:01:50.627Z,16.75
2022-09-28T13:04:35.296Z,16.77
2022-09-28T13:07:05.848Z,16.72
2022-09-28T13:09:58.071Z,16.60
2022-09-28T13:12:37.142Z,16.53
2022-09-28T13:15:17.779Z,16.44
2022-09-28T13:17:58.146Z,16.40
2022-09-28T13:20:40.438Z,16.38
2022-09-28T13:23:15.237Z,16.36
2022-09-28T13:25:48.001Z,16.33
2022-09-28T13:28:17.019Z,16.30
2022-09-28T13:30:46.148Z,16.26
2022-09-28T13:33:17.821Z,16.21
2022-09-28T13:35:46.146Z,16.17
2022-09-28T13:38:17.597Z,16.14
2022-09-28T13:41:04.246Z,16.11
2022-09-28T13:43:41.611Z,16.05
2022-09-28T13:46:14.618Z,15.99
2022-09-28T13:48:52.303Z,15.98
2022-09-28T13:55:10.518Z,15.93
2022-09-28T13:57:44.543Z,15.96
2022-09-28T14:00:12.762Z,15.97
2022-09-28T14:02:48.473Z,15.93
2022-09-28T14:05:22.812Z,15.89
2022-09-28T14:08:04.459Z,15.85
2022-09-28T14:10:52.085Z,15.82
2022-09-28T14:13:38.964Z,15.80
2022-09-28T14:16:20.810Z,15.77
2022-09-28T14:19:14.576Z,15.72
2022-09-28T14:22:01.277Z,15.73
2022-09-28T14:24:34.366Z,15.69
2022-09-28T14:27:02.512Z,15.65
2022-09-28T14:29:32.780Z,15.62
2022-09-28T14:32:09.710Z,15.62
2022-09-28T14:34:38.048Z,15.64
2022-09-28T14:37:44.926Z,15.62
2022-09-28T14:40:44.716Z,15.58
2022-09-28T14:43:33.806Z,15.58
2022-09-28T14:46:22.882Z,15.53
2022-09-28T14:48:51.301Z,15.50
2022-09-28T14:51:26.338Z,15.48
2022-09-28T14:53:56.596Z,15.45
2022-09-28T14:56:29.229Z,15.48
2022-09-28T14:59:00.961Z,15.48
2022-09-28T15:01:30.369Z,15.48
2022-09-28T15:04:02.310Z,15.49
2022-09-28T15:06:45.229Z,15.48
2022-09-28T15:09:33.046Z,15.45
2022-09-28T15:12:04.721Z,15.44
2022-09-28T15:14:53.399Z,15.41
2022-09-28T15:17:27.893Z,15.39
2022-09-28T15:20:08.984Z,15.37
2022-09-28T15:22:38.152Z,15.36
2022-09-28T15:25:13.883Z,15.33
2022-09-28T15:27:42.063Z,15.33
2022-09-28T15:30:28.304Z,15.32
2022-09-28T15:33:17.445Z,15.29
2022-09-28T15:35:47.870Z,15.27
2022-09-28T15:38:19.486Z,15.24
2022-09-28T15:40:47.906Z,15.20
2022-09-28T15:43:33.337Z,15.18
2022-09-28T15:46:18.591Z,15.16
2022-09-28T15:48:55.452Z,15.14
2022-09-28T15:51:24.798Z,15.11
2022-09-28T15:53:59.160Z,15.09
2022-09-28T15:56:28.415Z,15.04
2022-09-28T15:59:04.446Z,15.01
2022-09-28T16:01:38.400Z,14.97
2022-09-28T16:04:25.909Z,14.89
2022-09-28T16:07:18.616Z,14.82
2022-09-28T16:10:00.631Z,14.75
2022-09-28T16:12:37.771Z,14.68
2022-09-28T16:15:20.999Z,14.61
2022-09-28T16:17:54.197Z,14.51
2022-09-28T16:20:22.644Z,14.41
2022-09-28T16:22:51.411Z,14.33
2022-09-28T16:25:24.057Z,14.24
2022-09-28T16:27:53.482Z,14.14
2022-09-28T16:30:24.498Z,14.07
2022-09-28T16:32:52.790Z,14.00
2022-09-28T16:35:23.562Z,13.91
2022-09-28T16:37:57.479Z,13.84
2022-09-28T16:40:26.060Z,13.75
2022-09-28T16:42:57.086Z,13.67
2022-09-28T16:45:25.425Z,13.55
2022-09-28T16:47:55.652Z,13.47
2022-09-28T16:50:24.499Z,13.38
2022-09-28T16:56:07.512Z,13.23
2022-09-28T16:58:36.303Z,13.15
2022-09-28T17:01:09.803Z,13.07
2022-09-28T17:03:38.099Z,13.03
2022-09-28T17:06:06.580Z,12.95
2022-09-28T17:08:35.703Z,12.88
2022-09-28T17:11:24.264Z,12.82
2022-09-28T17:13:56.945Z,12.75
2022-09-28T17:16:43.049Z,12.70
2022-09-28T17:19:20.050Z,12.65
2022-09-28T17:21:49.009Z,12.58
2022-09-28T17:24:18.002Z,12.55
2022-09-28T17:26:47.416Z,12.48
2022-09-28T17:29:15.962Z,12.43
2022-09-28T17:31:45.174Z,12.38
2022-09-28T17:34:15.369Z,12.32
2022-09-28T17:36:43.903Z,12.26
2022-09-28T17:39:16.822Z,12.21
2022-09-28T17:41:45.427Z,12.17
2022-09-28T17:44:16.706Z,12.15
2022-09-28T17:46:48.733Z,12.13
2022-09-28T17:49:17.622Z,12.11
2022-09-28T17:51:46.243Z,12.09
2022-09-28T17:54:16.967Z,12.09
2022-09-28T17:56:46.359Z,12.10
2022-09-28T17:59:16.449Z,12.11
2022-09-28T18:02:05.241Z,12.11
2022-09-28T18:04:51.225Z,12.12
2022-09-28T18:07:20.757Z,12.12
2022-09-28T18:09:53.012Z,12.09
2022-09-28T18:12:21.478Z,12.10
2022-09-28T18:14:49.632Z,12.10
2022-09-28T18:17:17.881Z,12.07
2022-09-28T18:19:46.191Z,12.06
2022-09-28T18:22:14.350Z,12.03
2022-09-28T18:24:42.600Z,12.01
2022-09-28T18:27:10.808Z,11.99
2022-09-28T18:29:38.938Z,11.98
2022-09-28T18:32:07.194Z,11.98
2022-09-28T18:34:36.186Z,11.99
2022-09-28T18:37:05.286Z,12.00
2022-09-28T18:39:35.154Z,12.01
2022-09-28T18:42:03.407Z,12.01
2022-09-28T18:44:31.672Z,12.02
2022-09-28T18:47:02.459Z,12.01
2022-09-28T18:49:31.193Z,12.02
2022-09-28T18:51:59.468Z,12.03
2022-09-28T18:54:28.081Z,12.04
2022-09-28T18:56:57.378Z,12.06
2022-09-28T18:59:25.623Z,12.09
2022-09-28T19:01:53.882Z,12.12
2022-09-28T19:08:07.112Z,12.11
2022-09-28T19:10:35.297Z,12.06
2022-09-28T19:13:03.500Z,12.00
2022-09-28T19:15:32.826Z,11.95
2022-09-28T19:18:01.324Z,11.91
2022-09-28T19:20:29.573Z,11.85
2022-09-28T19:22:57.900Z,11.80
2022-09-28T19:25:26.198Z,11.74
2022-09-28T19:27:54.484Z,11.69
2022-09-28T19:30:22.684Z,11.67
2022-09-28T19:32:50.789Z,11.65
2022-09-28T19:35:18.915Z,11.62
2022-09-28T19:37:47.183Z,11.57
2022-09-28T19:40:15.464Z,11.54
2022-09-28T19:42:43.631Z,11.53
2022-09-28T19:45:11.850Z,11.50
2022-09-28T19:47:40.138Z,11.47
2022-09-28T19:50:09.007Z,11.45
2022-09-28T19:52:37.174Z,11.43
2022-09-28T19:55:05.578Z,11.44
2022-09-28T19:57:33.860Z,11.44
2022-09-28T20:00:03.910Z,11.42
2022-09-28T20:02:36.846Z,11.39
2022-09-28T20:05:05.136Z,11.36
2022-09-28T20:07:34.895Z,11.37
2022-09-28T20:10:03.066Z,11.35
2022-09-28T20:12:31.706Z,11.34
2022-09-28T20:14:59.901Z,11.38
2022-09-28T20:17:28.060Z,11.35
2022-09-28T20:19:56.207Z,11.35
2022-09-28T20:22:24.387Z,11.37
2022-09-28T20:24:52.771Z,11.34
2022-09-28T20:27:24.322Z,11.32
2022-09-28T20:29:54.497Z,11.33
2022-09-28T20:32:22.680Z,11.31
2022-09-28T20:34:50.914Z,11.29
2022-09-28T20:37:19.505Z,11.27
2022-09-28T20:39:47.786Z,11.27
2022-09-28T20:42:16.711Z,11.24
2022-09-28T20:44:45.139Z,11.25
2022-09-28T20:47:13.329Z,11.26
2022-09-28T20:49:41.741Z,11.26
2022-09-28T20:52:10.012Z,11.26
2022-09-28T20:54:38.289Z,11.26
2022-09-28T21:00:18.212Z,11.27
2022-09-28T21:02:50.874Z,11.28
2022-09-28T21:05:19.057Z,11.28
2022-09-28T21:07:47.213Z,11.30
2022-09-28T21:10:16.832Z,11.30
2022-09-28T21:12:47.114Z,11.29
2022-09-28T21:15:15.262Z,11.32
2022-09-28T21:17:43.725Z,11.36
2022-09-28T21:20:11.827Z,11.38
2022-09-28T21:22:39.990Z,11.39
2022-09-28T21:25:08.316Z,11.40
2022-09-28T21:27:36.691Z,11.41
2022-09-28T21:30:05.143Z,11.42
2022-09-28T21:32:35.413Z,11.44
2022-09-28T21:35:03.700Z,11.43
2022-09-28T21:37:31.875Z,11.44
2022-09-28T21:40:02.574Z,11.42
2022-09-28T21:42:31.015Z,11.44
2022-09-28T21:44:59.645Z,11.46
2022-09-28T21:47:27.737Z,11.45
2022-09-28T21:49:55.859Z,11.45
2022-09-28T21:52:24.135Z,11.44
2022-09-28T21:54:52.303Z,11.46
2022-09-28T21:57:20.417Z,11.44
2022-09-28T21:59:48.853Z,11.43
2022-09-28T22:05:31.481Z,11.40
2022-09-28T22:07:59.665Z,11.40
2022-09-28T22:10:27.790Z,11.41
2022-09-28T22:12:55.921Z,11.40
2022-09-28T22:15:24.052Z,11.41
2022-09-28T22:17:52.527Z,11.42
2022-09-28T22:20:20.623Z,11.43
2022-09-28T22:22:50.102Z,11.45
2022-09-28T22:25:18.236Z,11.46
2022-09-28T22:27:46.380Z,11.46
2022-09-28T22:30:14.564Z,11.47
2022-09-28T22:32:42.711Z,11.47
2022-09-28T22:35:10.881Z,11.48
2022-09-28T22:37:39.076Z,11.48
2022-09-28T22:40:07.689Z,11.49
2022-09-28T22:42:36.082Z,11.49
2022-09-28T22:45:04.679Z,11.50
2022-09-28T22:47:32.910Z,11.47
2022-09-28T22:50:01.163Z,11.47
2022-09-28T22:52:29.467Z,11.48
2022-09-28T22:54:57.637Z,11.48
2022-09-28T22:57:26.076Z,11.48
2022-09-28T22:59:54.207Z,11.49
2022-09-28T23:02:22.425Z,11.49
2022-09-28T23:05:05.845Z,11.48
2022-09-28T23:07:34.026Z,11.48
2022-09-28T23:10:02.181Z,11.48
2022-09-28T23:12:30.688Z,11.49
2022-09-28T23:14:58.953Z,11.48
2022-09-28T23:17:27.155Z,11.51
2022-09-28T23:19:55.283Z,11.51
2022-09-28T23:22:23.490Z,11.50
2022-09-28T23:24:51.617Z,11.48
2022-09-28T23:27:19.846Z,11.48
2022-09-28T23:29:49.080Z,11.45
2022-09-28T23:32:17.280Z,11.48
2022-09-28T23:34:45.457Z,11.46
2022-09-28T23:37:13.597Z,11.45
2022-09-28T23:39:42.460Z,11.46
2022-09-28T23:42:10.608Z,11.46
2022-09-28T23:44:38.700Z,11.46
2022-09-28T23:47:06.873Z,11.43
2022-09-28T23:49:35.002Z,11.40
2022-09-28T23:52:03.119Z,11.37
2022-09-28T23:54:31.747Z,11.33
2022-09-28T23:56:59.856Z,11.29
2022-09-28T23:59:27.993Z,11.24
